sensor_id;sensor_type;location;lat;lon;timestamp;pressure;altitude;pressure_sealevel;temperature;humidity
63006;BME280;53704;52.532;6.426;2023-02-01T00:01:23;101738.53;;;3.90;100.00
63006;BME280;53704;52.532;6.426;2023-02-01T00:03:48;101734.31;;;3.86;100.00
63006;BME280;53704;52.532;6.426;2023-02-01T00:06:14;101726.13;;;3.89;100.00
63006;BME280;53704;52.532;6.426;2023-02-01T00:08:39;101732.44;;;3.88;100.00
63006;BME280;53704;52.532;6.426;2023-02-01T00:11:07;101731.56;;;3.87;100.00
63006;BME280;53704;52.532;6.426;2023-02-01T00:13:36;101721.00;;;3.86;100.00
63006;BME280;53704;52.532;6.426;2023-02-01T00:16:11;101723.19;;;3.93;100.00
63006;BME280;53704;52.532;6.426;2023-02-01T00:18:38;101729.00;;;3.86;100.00
63006;BME280;53704;52.532;6.426;2023-02-01T00:21:04;101729.19;;;3.83;100.00
63006;BME280;53704;52.532;6.426;2023-02-01T00:23:32;101721.97;;;3.85;100.00
63006;BME280;53704;52.532;6.426;2023-02-01T00:26:03;101722.81;;;3.85;100.00
63006;BME280;53704;52.532;6.426;2023-02-01T00:28:29;101708.38;;;3.89;100.00
63006;BME280;53704;52.532;6.426;2023-02-01T00:30:57;101722.25;;;3.94;100.00
63006;BME280;53704;52.532;6.426;2023-02-01T00:33:22;101724.34;;;3.89;100.00
63006;BME280;53704;52.532;6.426;2023-02-01T00:35:48;101717.41;;;3.87;100.00
63006;BME280;53704;52.532;6.426;2023-02-01T00:38:13;101706.81;;;3.99;100.00
63006;BME280;53704;52.532;6.426;2023-02-01T00:40:38;101708.81;;;3.96;100.00
63006;BME280;53704;52.532;6.426;2023-02-01T00:43:04;101713.75;;;4.02;100.00
63006;BME280;53704;52.532;6.426;2023-02-01T00:45:29;101718.88;;;4.05;100.00
63006;BME280;53704;52.532;6.426;2023-02-01T00:47:55;101726.97;;;4.04;100.00
63006;BME280;53704;52.532;6.426;2023-02-01T00:50:20;101721.66;;;4.04;100.00
63006;BME280;53704;52.532;6.426;2023-02-01T00:52:48;101725.81;;;4.08;100.00
63006;BME280;53704;52.532;6.426;2023-02-01T00:55:13;101729.53;;;4.05;100.00
63006;BME280;53704;52.532;6.426;2023-02-01T00:57:39;101730.00;;;4.12;100.00
63006;BME280;53704;52.532;6.426;2023-02-01T01:00:04;101734.38;;;4.13;100.00
63006;BME280;53704;52.532;6.426;2023-02-01T01:02:30;101728.28;;;4.11;100.00
63006;BME280;53704;52.532;6.426;2023-02-01T01:04:55;101728.97;;;4.14;100.00
63006;BME280;53704;52.532;6.426;2023-02-01T01:07:21;101719.88;;;4.17;100.00
63006;BME280;53704;52.532;6.426;2023-02-01T01:09:46;101713.72;;;4.16;100.00
63006;BME280;53704;52.532;6.426;2023-02-01T01:12:12;101709.22;;;4.17;100.00
63006;BME280;53704;52.532;6.426;2023-02-01T01:14:37;101695.69;;;4.20;100.00
63006;BME280;53704;52.532;6.426;2023-02-01T01:17:03;101688.25;;;4.25;100.00
63006;BME280;53704;52.532;6.426;2023-02-01T01:19:28;101685.03;;;4.20;100.00
63006;BME280;53704;52.532;6.426;2023-02-01T01:21:53;101688.44;;;4.22;100.00
63006;BME280;53704;52.532;6.426;2023-02-01T01:24:19;101681.44;;;4.21;100.00
63006;BME280;53704;52.532;6.426;2023-02-01T01:26:44;101677.19;;;4.31;100.00
63006;BME280;53704;52.532;6.426;2023-02-01T01:29:09;101680.16;;;4.27;100.00
63006;BME280;53704;52.532;6.426;2023-02-01T01:31:36;101675.03;;;4.24;100.00
63006;BME280;53704;52.532;6.426;2023-02-01T01:34:01;101677.38;;;4.28;100.00
63006;BME280;53704;52.532;6.426;2023-02-01T01:36:28;101679.19;;;4.28;100.00
63006;BME280;53704;52.532;6.426;2023-02-01T01:38:53;101674.31;;;4.34;100.00
63006;BME280;53704;52.532;6.426;2023-02-01T01:41:21;101668.25;;;4.32;100.00
63006;BME280;53704;52.532;6.426;2023-02-01T01:43:53;101669.75;;;4.37;100.00
63006;BME280;53704;52.532;6.426;2023-02-01T01:46:30;101673.56;;;4.32;100.00
63006;BME280;53704;52.532;6.426;2023-02-01T01:49:17;101663.84;;;4.31;100.00
63006;BME280;53704;52.532;6.426;2023-02-01T01:51:51;101668.88;;;4.36;100.00
63006;BME280;53704;52.532;6.426;2023-02-01T01:54:28;101676.97;;;4.34;100.00
63006;BME280;53704;52.532;6.426;2023-02-01T01:57:06;101669.66;;;4.38;100.00
63006;BME280;53704;52.532;6.426;2023-02-01T01:59:35;101662.59;;;4.37;100.00
63006;BME280;53704;52.532;6.426;2023-02-01T02:02:01;101648.44;;;4.37;100.00
63006;BME280;53704;52.532;6.426;2023-02-01T02:04:27;101651.09;;;4.37;100.00
63006;BME280;53704;52.532;6.426;2023-02-01T02:07:00;101642.44;;;4.46;100.00
63006;BME280;53704;52.532;6.426;2023-02-01T02:09:27;101640.53;;;4.48;100.00
63006;BME280;53704;52.532;6.426;2023-02-01T02:11:52;101640.66;;;4.46;100.00
63006;BME280;53704;52.532;6.426;2023-02-01T02:14:19;101641.50;;;4.47;100.00
63006;BME280;53704;52.532;6.426;2023-02-01T02:17:02;101629.13;;;4.46;100.00
63006;BME280;53704;52.532;6.426;2023-02-01T02:22:46;101622.28;;;4.42;100.00
63006;BME280;53704;52.532;6.426;2023-02-01T02:37:16;101602.91;;;4.40;100.00
63006;BME280;53704;52.532;6.426;2023-02-01T02:43:12;101597.31;;;4.43;100.00
63006;BME280;53704;52.532;6.426;2023-02-01T02:46:06;101587.44;;;4.45;100.00
63006;BME280;53704;52.532;6.426;2023-02-01T02:49:00;101585.50;;;4.34;100.00
63006;BME280;53704;52.532;6.426;2023-02-01T02:51:40;101588.91;;;4.36;100.00
63006;BME280;53704;52.532;6.426;2023-02-01T02:54:32;101578.44;;;4.33;100.00
63006;BME280;53704;52.532;6.426;2023-02-01T02:57:21;101573.88;;;4.35;100.00
63006;BME280;53704;52.532;6.426;2023-02-01T03:00:10;101573.69;;;4.38;100.00
63006;BME280;53704;52.532;6.426;2023-02-01T03:02:55;101576.13;;;4.41;100.00
63006;BME280;53704;52.532;6.426;2023-02-01T03:05:44;101578.44;;;4.46;100.00
63006;BME280;53704;52.532;6.426;2023-02-01T03:08:13;101570.34;;;4.47;100.00
63006;BME280;53704;52.532;6.426;2023-02-01T03:11:02;101557.13;;;4.46;100.00
63006;BME280;53704;52.532;6.426;2023-02-01T03:18:58;101570.03;;;4.52;100.00
63006;BME280;53704;52.532;6.426;2023-02-01T03:21:48;101563.84;;;4.51;100.00
63006;BME280;53704;52.532;6.426;2023-02-01T03:24:31;101564.50;;;4.55;100.00
63006;BME280;53704;52.532;6.426;2023-02-01T03:27:04;101563.66;;;4.55;100.00
63006;BME280;53704;52.532;6.426;2023-02-01T03:29:38;101565.47;;;4.54;100.00
63006;BME280;53704;52.532;6.426;2023-02-01T03:32:05;101568.88;;;4.56;100.00
63006;BME280;53704;52.532;6.426;2023-02-01T03:34:31;101569.81;;;4.55;100.00
63006;BME280;53704;52.532;6.426;2023-02-01T03:37:00;101569.94;;;4.53;100.00
63006;BME280;53704;52.532;6.426;2023-02-01T03:42:00;101565.47;;;4.54;100.00
63006;BME280;53704;52.532;6.426;2023-02-01T03:44:40;101567.94;;;4.57;100.00
63006;BME280;53704;52.532;6.426;2023-02-01T03:47:14;101561.59;;;4.58;100.00
63006;BME280;53704;52.532;6.426;2023-02-01T03:49:44;101561.09;;;4.53;100.00
63006;BME280;53704;52.532;6.426;2023-02-01T03:52:17;101558.84;;;4.60;100.00
63006;BME280;53704;52.532;6.426;2023-02-01T03:54:44;101560.13;;;4.67;100.00
63006;BME280;53704;52.532;6.426;2023-02-01T03:57:13;101559.25;;;4.66;100.00
63006;BME280;53704;52.532;6.426;2023-02-01T03:59:41;101553.50;;;4.72;100.00
63006;BME280;53704;52.532;6.426;2023-02-01T04:02:06;101545.69;;;4.69;100.00
63006;BME280;53704;52.532;6.426;2023-02-01T04:04:32;101550.81;;;4.72;100.00
63006;BME280;53704;52.532;6.426;2023-02-01T04:06:58;101549.03;;;4.73;100.00
63006;BME280;53704;52.532;6.426;2023-02-01T04:09:23;101557.88;;;4.74;100.00
63006;BME280;53704;52.532;6.426;2023-02-01T04:11:49;101560.13;;;4.80;100.00
63006;BME280;53704;52.532;6.426;2023-02-01T04:14:14;101545.81;;;4.81;100.00
63006;BME280;53704;52.532;6.426;2023-02-01T04:16:40;101546.56;;;4.83;100.00
63006;BME280;53704;52.532;6.426;2023-02-01T04:19:05;101553.63;;;4.84;100.00
63006;BME280;53704;52.532;6.426;2023-02-01T04:21:31;101553.81;;;4.81;100.00
63006;BME280;53704;52.532;6.426;2023-02-01T04:23:56;101551.78;;;4.84;100.00
63006;BME280;53704;52.532;6.426;2023-02-01T04:26:22;101547.19;;;4.86;100.00
63006;BME280;53704;52.532;6.426;2023-02-01T04:28:48;101555.19;;;4.86;100.00
63006;BME280;53704;52.532;6.426;2023-02-01T04:31:17;101547.41;;;4.83;100.00
63006;BME280;53704;52.532;6.426;2023-02-01T04:33:49;101553.63;;;4.84;100.00
63006;BME280;53704;52.532;6.426;2023-02-01T04:36:15;101544.31;;;4.89;100.00
63006;BME280;53704;52.532;6.426;2023-02-01T04:38:40;101548.03;;;4.87;100.00
63006;BME280;53704;52.532;6.426;2023-02-01T04:41:05;101544.41;;;4.88;100.00
63006;BME280;53704;52.532;6.426;2023-02-01T04:43:31;101550.47;;;4.90;100.00
63006;BME280;53704;52.532;6.426;2023-02-01T04:45:56;101549.63;;;4.89;100.00
63006;BME280;53704;52.532;6.426;2023-02-01T04:48:22;101557.53;;;4.91;100.00
63006;BME280;53704;52.532;6.426;2023-02-01T04:50:48;101553.03;;;4.92;100.00
63006;BME280;53704;52.532;6.426;2023-02-01T04:53:14;101565.53;;;4.91;100.00
63006;BME280;53704;52.532;6.426;2023-02-01T04:55:40;101551.13;;;4.94;100.00
63006;BME280;53704;52.532;6.426;2023-02-01T04:58:06;101549.19;;;4.96;100.00
63006;BME280;53704;52.532;6.426;2023-02-01T05:00:31;101548.34;;;4.95;100.00
63006;BME280;53704;52.532;6.426;2023-02-01T05:02:57;101546.84;;;4.91;100.00
63006;BME280;53704;52.532;6.426;2023-02-01T05:05:22;101539.59;;;4.93;100.00
63006;BME280;53704;52.532;6.426;2023-02-01T05:07:48;101538.75;;;4.93;100.00
63006;BME280;53704;52.532;6.426;2023-02-01T05:10:13;101536.09;;;4.93;100.00
63006;BME280;53704;52.532;6.426;2023-02-01T05:12:39;101529.91;;;4.92;100.00
63006;BME280;53704;52.532;6.426;2023-02-01T05:15:23;101528.41;;;4.88;100.00
63006;BME280;53704;52.532;6.426;2023-02-01T05:17:48;101533.53;;;4.91;100.00
63006;BME280;53704;52.532;6.426;2023-02-01T05:20:14;101524.03;;;4.87;100.00
63006;BME280;53704;52.532;6.426;2023-02-01T05:22:41;101520.63;;;4.85;100.00
63006;BME280;53704;52.532;6.426;2023-02-01T05:25:06;101533.53;;;4.78;100.00
63006;BME280;53704;52.532;6.426;2023-02-01T05:27:32;101532.91;;;4.75;100.00
63006;BME280;53704;52.532;6.426;2023-02-01T05:29:58;101530.25;;;4.75;100.00
63006;BME280;53704;52.532;6.426;2023-02-01T05:32:23;101530.34;;;4.73;100.00
63006;BME280;53704;52.532;6.426;2023-02-01T05:34:49;101529.38;;;4.74;100.00
63006;BME280;53704;52.532;6.426;2023-02-01T05:37:14;101541.13;;;4.71;100.00
63006;BME280;53704;52.532;6.426;2023-02-01T05:39:40;101543.69;;;4.73;100.00
63006;BME280;53704;52.532;6.426;2023-02-01T05:42:05;101562.03;;;4.78;100.00
63006;BME280;53704;52.532;6.426;2023-02-01T05:44:30;101558.41;;;4.79;100.00
63006;BME280;53704;52.532;6.426;2023-02-01T05:46:56;101552.00;;;4.81;100.00
63006;BME280;53704;52.532;6.426;2023-02-01T05:49:21;101541.53;;;4.78;100.00
63006;BME280;53704;52.532;6.426;2023-02-01T05:51:47;101541.34;;;4.81;100.00
63006;BME280;53704;52.532;6.426;2023-02-01T05:54:12;101550.41;;;4.79;100.00
63006;BME280;53704;52.532;6.426;2023-02-01T05:56:38;101557.22;;;4.83;100.00
63006;BME280;53704;52.532;6.426;2023-02-01T05:59:03;101560.00;;;4.81;100.00
63006;BME280;53704;52.532;6.426;2023-02-01T06:01:29;101552.22;;;4.78;100.00
63006;BME280;53704;52.532;6.426;2023-02-01T06:03:54;101545.94;;;4.79;100.00
63006;BME280;53704;52.532;6.426;2023-02-01T06:06:19;101538.78;;;4.80;100.00
63006;BME280;53704;52.532;6.426;2023-02-01T06:08:45;101556.28;;;4.84;100.00
63006;BME280;53704;52.532;6.426;2023-02-01T06:11:11;101558.81;;;4.85;100.00
63006;BME280;53704;52.532;6.426;2023-02-01T06:13:36;101549.13;;;4.84;100.00
63006;BME280;53704;52.532;6.426;2023-02-01T06:16:04;101554.34;;;4.86;100.00
63006;BME280;53704;52.532;6.426;2023-02-01T06:18:31;101555.19;;;4.86;100.00
63006;BME280;53704;52.532;6.426;2023-02-01T06:20:58;101555.81;;;4.90;100.00
63006;BME280;53704;52.532;6.426;2023-02-01T06:23:25;101560.53;;;4.86;100.00
63006;BME280;53704;52.532;6.426;2023-02-01T06:25:52;101560.31;;;4.89;100.00
63006;BME280;53704;52.532;6.426;2023-02-01T06:28:17;101564.91;;;4.87;100.00
63006;BME280;53704;52.532;6.426;2023-02-01T06:30:43;101568.41;;;4.88;100.00
63006;BME280;53704;52.532;6.426;2023-02-01T06:33:12;101563.81;;;4.90;100.00
63006;BME280;53704;52.532;6.426;2023-02-01T06:35:40;101570.88;;;4.91;100.00
63006;BME280;53704;52.532;6.426;2023-02-01T06:38:07;101566.38;;;4.92;100.00
63006;BME280;53704;52.532;6.426;2023-02-01T06:40:32;101566.28;;;4.93;100.00
63006;BME280;53704;52.532;6.426;2023-02-01T06:42:58;101571.38;;;4.96;100.00
63006;BME280;53704;52.532;6.426;2023-02-01T06:45:23;101573.31;;;4.94;100.00
63006;BME280;53704;52.532;6.426;2023-02-01T06:47:49;101573.09;;;4.97;100.00
63006;BME280;53704;52.532;6.426;2023-02-01T06:50:14;101579.63;;;4.93;100.00
63006;BME280;53704;52.532;6.426;2023-02-01T06:52:40;101589.34;;;4.94;100.00
63006;BME280;53704;52.532;6.426;2023-02-01T06:55:06;101578.03;;;4.91;100.00
63006;BME280;53704;52.532;6.426;2023-02-01T06:57:31;101584.53;;;4.99;100.00
63006;BME280;53704;52.532;6.426;2023-02-01T06:59:58;101577.59;;;4.97;100.00
63006;BME280;53704;52.532;6.426;2023-02-01T07:02:23;101583.78;;;4.97;100.00
63006;BME280;53704;52.532;6.426;2023-02-01T07:04:49;101577.59;;;4.97;100.00
63006;BME280;53704;52.532;6.426;2023-02-01T07:07:14;101585.72;;;4.95;100.00
63006;BME280;53704;52.532;6.426;2023-02-01T07:09:40;101586.56;;;4.96;100.00
63006;BME280;53704;52.532;6.426;2023-02-01T07:12:06;101598.06;;;4.96;100.00
63006;BME280;53704;52.532;6.426;2023-02-01T07:14:31;101587.41;;;4.96;100.00
63006;BME280;53704;52.532;6.426;2023-02-01T07:16:57;101585.50;;;4.98;100.00
63006;BME280;53704;52.532;6.426;2023-02-01T07:19:22;101596.91;;;5.00;100.00
63006;BME280;53704;52.532;6.426;2023-02-01T07:21:48;101595.09;;;5.01;100.00
63006;BME280;53704;52.532;6.426;2023-02-01T07:24:13;101594.47;;;4.97;100.00
63006;BME280;53704;52.532;6.426;2023-02-01T07:26:39;101589.63;;;5.02;100.00
63006;BME280;53704;52.532;6.426;2023-02-01T07:29:05;101594.03;;;5.03;100.00
63006;BME280;53704;52.532;6.426;2023-02-01T07:31:31;101593.41;;;5.00;100.00
63006;BME280;53704;52.532;6.426;2023-02-01T07:33:56;101604.91;;;5.00;100.00
63006;BME280;53704;52.532;6.426;2023-02-01T07:36:23;101595.97;;;5.01;100.00
63006;BME280;53704;52.532;6.426;2023-02-01T07:38:48;101598.63;;;5.01;100.00
63006;BME280;53704;52.532;6.426;2023-02-01T07:41:14;101594.75;;;5.05;100.00
63006;BME280;53704;52.532;6.426;2023-02-01T07:43:40;101597.88;;;4.99;100.00
63006;BME280;53704;52.532;6.426;2023-02-01T07:46:06;101612.19;;;4.98;100.00
63006;BME280;53704;52.532;6.426;2023-02-01T07:48:32;101602.47;;;4.97;100.00
63006;BME280;53704;52.532;6.426;2023-02-01T07:51:01;101603.41;;;4.96;100.00
63006;BME280;53704;52.532;6.426;2023-02-01T07:53:28;101598.94;;;4.97;100.00
63006;BME280;53704;52.532;6.426;2023-02-01T07:55:54;101605.34;;;4.94;100.00
63006;BME280;53704;52.532;6.426;2023-02-01T07:58:21;101596.81;;;4.89;100.00
63006;BME280;53704;52.532;6.426;2023-02-01T08:00:47;101602.25;;;4.87;100.00
63006;BME280;53704;52.532;6.426;2023-02-01T08:03:31;101594.38;;;4.86;100.00
63006;BME280;53704;52.532;6.426;2023-02-01T08:05:56;101591.69;;;4.86;100.00
63006;BME280;53704;52.532;6.426;2023-02-01T08:08:22;101593.94;;;4.79;100.00
63006;BME280;53704;52.532;6.426;2023-02-01T08:10:47;101600.88;;;4.82;100.00
63006;BME280;53704;52.532;6.426;2023-02-01T08:13:13;101600.97;;;4.80;100.00
63006;BME280;53704;52.532;6.426;2023-02-01T08:15:39;101600.34;;;4.77;100.00
63006;BME280;53704;52.532;6.426;2023-02-01T08:18:04;101602.16;;;4.76;100.00
63006;BME280;53704;52.532;6.426;2023-02-01T08:20:30;101609.19;;;4.77;100.00
63006;BME280;53704;52.532;6.426;2023-02-01T08:22:56;101605.34;;;4.81;100.00
63006;BME280;53704;52.532;6.426;2023-02-01T08:25:22;101602.59;;;4.83;100.00
63006;BME280;53704;52.532;6.426;2023-02-01T08:27:48;101603.53;;;4.82;100.00
63006;BME280;53704;52.532;6.426;2023-02-01T08:30:14;101602.59;;;4.83;100.00
63006;BME280;53704;52.532;6.426;2023-02-01T08:32:40;101602.78;;;4.93;100.00
63006;BME280;53704;52.532;6.426;2023-02-01T08:35:06;101603.84;;;4.90;100.00
63006;BME280;53704;52.532;6.426;2023-02-01T08:37:31;101612.41;;;4.95;100.00
63006;BME280;53704;52.532;6.426;2023-02-01T08:39:57;101612.63;;;4.92;100.00
63006;BME280;53704;52.532;6.426;2023-02-01T08:42:23;101610.91;;;4.91;100.00
63006;BME280;53704;52.532;6.426;2023-02-01T08:45:07;101595.09;;;5.01;100.00
63006;BME280;53704;52.532;6.426;2023-02-01T08:47:34;101590.28;;;4.93;100.00
63006;BME280;53704;52.532;6.426;2023-02-01T08:49:59;101599.69;;;4.99;100.00
63006;BME280;53704;52.532;6.426;2023-02-01T08:52:25;101589.97;;;4.98;100.00
63006;BME280;53704;52.532;6.426;2023-02-01T08:54:50;101571.38;;;4.96;100.00
63006;BME280;53704;52.532;6.426;2023-02-01T08:57:16;101587.94;;;5.01;100.00
63006;BME280;53704;52.532;6.426;2023-02-01T08:59:42;101572.16;;;4.98;100.00
63006;BME280;53704;52.532;6.426;2023-02-01T09:02:13;101585.50;;;4.98;100.00
63006;BME280;53704;52.532;6.426;2023-02-01T09:04:40;101577.50;;;4.98;100.00
63006;BME280;53704;52.532;6.426;2023-02-01T09:07:05;101575.47;;;5.02;100.00
63006;BME280;53704;52.532;6.426;2023-02-01T09:09:31;101573.00;;;4.99;100.00
63006;BME280;53704;52.532;6.426;2023-02-01T09:11:56;101570.00;;;5.03;100.00
63006;BME280;53704;52.532;6.426;2023-02-01T09:14:22;101564.34;;;5.08;100.00
63006;BME280;53704;52.532;6.426;2023-02-01T09:16:47;101562.19;;;5.13;100.00
63006;BME280;53704;52.532;6.426;2023-02-01T09:19:14;101565.59;;;5.15;100.00
63006;BME280;53704;52.532;6.426;2023-02-01T09:21:39;101561.47;;;5.11;100.00
63006;BME280;53704;52.532;6.426;2023-02-01T09:24:05;101554.06;;;5.15;100.00
63006;BME280;53704;52.532;6.426;2023-02-01T09:26:32;101558.25;;;5.19;100.00
63006;BME280;53704;52.532;6.426;2023-02-01T09:28:58;101569.03;;;5.17;100.00
63006;BME280;53704;52.532;6.426;2023-02-01T09:31:23;101564.53;;;5.18;100.00
63006;BME280;53704;52.532;6.426;2023-02-01T09:33:49;101564.53;;;5.18;100.00
63006;BME280;53704;52.532;6.426;2023-02-01T09:36:14;101558.13;;;5.20;100.00
63006;BME280;53704;52.532;6.426;2023-02-01T09:38:39;101555.13;;;5.25;100.00
63006;BME280;53704;52.532;6.426;2023-02-01T09:41:34;101556.81;;;5.26;100.00
63006;BME280;53704;52.532;6.426;2023-02-01T09:47:02;101539.13;;;5.25;100.00
63006;BME280;53704;52.532;6.426;2023-02-01T09:49:43;101531.09;;;5.25;100.00
63006;BME280;53704;52.532;6.426;2023-02-01T09:52:14;101523.81;;;5.27;100.00
63006;BME280;53704;52.532;6.426;2023-02-01T09:54:44;101523.59;;;5.30;100.00
63006;BME280;53704;52.532;6.426;2023-02-01T09:57:21;101522.84;;;5.28;100.00
63006;BME280;53704;52.532;6.426;2023-02-01T09:59:52;101519.00;;;5.32;100.00
63006;BME280;53704;52.532;6.426;2023-02-01T10:02:27;101528.50;;;5.36;100.00
63006;BME280;53704;52.532;6.426;2023-02-01T10:04:59;101511.09;;;5.31;100.00
63006;BME280;53704;52.532;6.426;2023-02-01T10:07:32;101518.16;;;5.32;100.00
63006;BME280;53704;52.532;6.426;2023-02-01T10:10:07;101524.94;;;5.36;100.00
63006;BME280;53704;52.532;6.426;2023-02-01T10:20:52;101524.94;;;5.12;100.00
63006;BME280;53704;52.532;6.426;2023-02-01T10:26:08;101538.94;;;5.02;100.00
63006;BME280;53704;52.532;6.426;2023-02-01T10:28:38;101539.59;;;4.93;100.00
63006;BME280;53704;52.532;6.426;2023-02-01T10:31:05;101545.34;;;4.87;100.00
63006;BME280;53704;52.532;6.426;2023-02-01T10:33:49;101538.56;;;4.83;100.00
63006;BME280;53704;52.532;6.426;2023-02-01T10:38:47;101546.75;;;4.93;100.00
63006;BME280;53704;52.532;6.426;2023-02-01T10:41:18;101532.78;;;4.89;100.00
63006;BME280;53704;52.532;6.426;2023-02-01T10:43:47;101538.13;;;4.89;100.00
63006;BME280;53704;52.532;6.426;2023-02-01T10:46:13;101529.13;;;4.90;100.00
63006;BME280;53704;52.532;6.426;2023-02-01T10:48:39;101533.31;;;4.94;100.00
63006;BME280;53704;52.532;6.426;2023-02-01T10:51:12;101538.84;;;4.91;100.00
63006;BME280;53704;52.532;6.426;2023-02-01T10:53:54;101521.78;;;4.94;100.00
63006;BME280;53704;52.532;6.426;2023-02-01T10:56:23;101532.97;;;4.99;100.00
63006;BME280;53704;52.532;6.426;2023-02-01T10:58:49;101529.75;;;5.06;100.00
63006;BME280;53704;52.532;6.426;2023-02-01T11:01:45;101527.41;;;5.02;100.00
63006;BME280;53704;52.532;6.426;2023-02-01T11:04:14;101519.84;;;4.96;100.00
63006;BME280;53704;52.532;6.426;2023-02-01T11:06:41;101529.78;;;4.94;100.00
63006;BME280;53704;52.532;6.426;2023-02-01T11:09:10;101520.69;;;4.96;100.00
63006;BME280;53704;52.532;6.426;2023-02-01T11:12:01;101521.91;;;4.92;100.00
63006;BME280;53704;52.532;6.426;2023-02-01T11:14:39;101507.16;;;4.86;100.00
63006;BME280;53704;52.532;6.426;2023-02-01T11:19:44;101509.72;;;4.88;100.00
63006;BME280;53704;52.532;6.426;2023-02-01T11:22:12;101503.88;;;4.83;100.00
63006;BME280;53704;52.532;6.426;2023-02-01T11:24:38;101513.03;;;4.79;100.00
63006;BME280;53704;52.532;6.426;2023-02-01T11:27:12;101497.59;;;4.71;100.00
63006;BME280;53704;52.532;6.426;2023-02-01T11:29:42;101509.25;;;4.70;100.00
63006;BME280;53704;52.532;6.426;2023-02-01T11:32:13;101507.31;;;4.59;100.00
63006;BME280;53704;52.532;6.426;2023-02-01T11:37:20;101500.56;;;4.66;100.00
63006;BME280;53704;52.532;6.426;2023-02-01T11:39:57;101495.13;;;4.68;100.00
63006;BME280;53704;52.532;6.426;2023-02-01T11:42:23;101495.13;;;4.68;100.00
63006;BME280;53704;52.532;6.426;2023-02-01T11:44:49;101494.91;;;4.71;100.00
63006;BME280;53704;52.532;6.426;2023-02-01T11:47:27;101486.25;;;4.80;100.00
63006;BME280;53704;52.532;6.426;2023-02-01T11:49:56;101473.53;;;4.97;100.00
63006;BME280;53704;52.532;6.426;2023-02-01T11:55:39;101465.94;;;5.03;100.00
63006;BME280;53704;52.532;6.426;2023-02-01T12:09:58;101450.75;;;5.28;100.00
63006;BME280;53704;52.532;6.426;2023-02-01T12:12:43;101461.09;;;5.33;100.00
63006;BME280;53704;52.532;6.426;2023-02-01T12:17:59;101452.50;;;5.40;100.00
63006;BME280;53704;52.532;6.426;2023-02-01T12:20:57;101463.00;;;5.55;100.00
63006;BME280;53704;52.532;6.426;2023-02-01T12:42:52;101464.63;;;5.33;100.00
63006;BME280;53704;52.532;6.426;2023-02-01T12:45:09;101473.09;;;5.27;100.00
63006;BME280;53704;52.532;6.426;2023-02-01T12:47:51;101475.03;;;5.25;100.00
63006;BME280;53704;52.532;6.426;2023-02-01T12:50:31;101476.22;;;5.21;100.00
63006;BME280;53704;52.532;6.426;2023-02-01T12:53:15;101473.88;;;5.16;100.00
63006;BME280;53704;52.532;6.426;2023-02-01T12:56:07;101487.44;;;5.13;100.00
63006;BME280;53704;52.532;6.426;2023-02-01T13:01:12;101473.03;;;5.16;100.00
63006;BME280;53704;52.532;6.426;2023-02-01T13:04:05;101466.66;;;5.05;100.00
63006;BME280;53704;52.532;6.426;2023-02-01T13:09:26;101486.84;;;5.10;100.00
63006;BME280;53704;52.532;6.426;2023-02-01T13:11:55;101473.59;;;5.08;100.00
63006;BME280;53704;52.532;6.426;2023-02-01T13:14:26;101481.72;;;5.06;100.00
63006;BME280;53704;52.532;6.426;2023-02-01T13:17:05;101488.75;;;5.07;100.00
63006;BME280;53704;52.532;6.426;2023-02-01T13:19:48;101492.84;;;5.00;100.00
63006;BME280;53704;52.532;6.426;2023-02-01T13:22:21;101500.09;;;4.98;100.00
63006;BME280;53704;52.532;6.426;2023-02-01T13:24:57;101493.50;;;4.91;100.00
63006;BME280;53704;52.532;6.426;2023-02-01T13:27:26;101495.84;;;4.96;100.00
63006;BME280;53704;52.532;6.426;2023-02-01T13:29:59;101493.25;;;5.07;100.00
63006;BME280;53704;52.532;6.426;2023-02-01T13:38:57;101496.19;;;5.15;100.00
63006;BME280;53704;52.532;6.426;2023-02-01T13:44:41;101491.63;;;5.17;100.00
63006;BME280;53704;52.532;6.426;2023-02-01T13:47:24;101486.38;;;5.16;100.00
63006;BME280;53704;52.532;6.426;2023-02-01T13:49:50;101506.66;;;5.18;100.00
63006;BME280;53704;52.532;6.426;2023-02-01T13:52:32;101503.41;;;5.26;100.00
63006;BME280;53704;52.532;6.426;2023-02-01T13:55:35;101495.28;;;5.28;100.00
63006;BME280;53704;52.532;6.426;2023-02-01T13:58:20;101495.34;;;5.39;100.00
63006;BME280;53704;52.532;6.426;2023-02-01T14:00:47;101502.41;;;5.40;100.00
63006;BME280;53704;52.532;6.426;2023-02-01T14:03:18;101504.47;;;5.36;100.00
63006;BME280;53704;52.532;6.426;2023-02-01T14:08:14;101513.75;;;5.55;100.00
63006;BME280;53704;52.532;6.426;2023-02-01T14:10:57;101507.47;;;5.56;100.00
63006;BME280;53704;52.532;6.426;2023-02-01T14:13:35;101510.13;;;5.56;100.00
63006;BME280;53704;52.532;6.426;2023-02-01T14:21:32;101517.75;;;5.49;100.00
63006;BME280;53704;52.532;6.426;2023-02-01T14:24:23;101512.28;;;5.51;100.00
63006;BME280;53704;52.532;6.426;2023-02-01T14:26:51;101515.09;;;5.49;100.00
63006;BME280;53704;52.532;6.426;2023-02-01T14:32:07;101518.16;;;5.56;100.00
63006;BME280;53704;52.532;6.426;2023-02-01T14:50:24;101533.66;;;5.75;100.00
63006;BME280;53704;52.532;6.426;2023-02-01T14:55:58;101542.81;;;5.84;100.00
63006;BME280;53704;52.532;6.426;2023-02-01T15:00:58;101551.72;;;5.71;100.00
63006;BME280;53704;52.532;6.426;2023-02-01T15:03:44;101553.91;;;5.66;100.00
63006;BME280;53704;52.532;6.426;2023-02-01T15:09:20;101538.50;;;5.70;100.00
63006;BME280;53704;52.532;6.426;2023-02-01T15:19:59;101563.16;;;5.73;100.00
63006;BME280;53704;52.532;6.426;2023-02-01T15:22:27;101548.19;;;5.71;100.00
63006;BME280;53704;52.532;6.426;2023-02-01T15:25:00;101564.94;;;5.61;100.00
63006;BME280;53704;52.532;6.426;2023-02-01T15:27:27;101560.09;;;5.67;100.00